Time;durP1;ratioP1;P1;durP2;ratioP2;P2;SDS_P1;SDS_P2;PMS_P1;PMS_P2;Temp;Humidity;BMP_temperature;BMP_pressure;BME280_temperature;BME280_humidity;BME280_pressure;Samples;Min_cycle;Max_cycle;Signal;HPM_P1;HPM_P2
2023/01/09 00:00:47;;;;;;;10.70;3.80;;;5.90;99.90;;;;;;5118296;27;20194;-61
2023/01/09 00:03:13;;;;;;;11.05;4.32;;;5.90;99.90;;;;;;5124097;27;20087;-61
2023/01/09 00:05:38;;;;;;;11.20;3.58;;;5.90;99.90;;;;;;5121494;27;20539;-61
2023/01/09 00:08:04;;;;;;;8.55;3.35;;;6.00;99.90;;;;;;5122122;27;20034;-60
2023/01/09 00:10:30;;;;;;;10.93;2.95;;;6.00;99.90;;;;;;5119687;27;20058;-61
2023/01/09 00:12:55;;;;;;;10.50;3.20;;;6.00;99.90;;;;;;5121335;27;20515;-60
2023/01/09 00:15:21;;;;;;;7.82;2.67;;;6.10;99.90;;;;;;5121253;27;20050;-60
2023/01/09 00:17:48;;;;;;;10.63;3.00;;;6.10;99.90;;;;;;5122004;27;20053;-59
2023/01/09 00:20:14;;;;;;;7.47;2.70;;;6.10;99.90;;;;;;5117796;27;20050;-61
2023/01/09 00:22:40;;;;;;;9.05;2.70;;;6.20;99.90;;;;;;5120728;27;20044;-61
2023/01/09 00:25:07;;;;;;;6.43;2.35;;;6.30;99.90;;;;;;5136463;27;20676;-60
2023/01/09 00:27:34;;;;;;;9.10;3.20;;;6.30;99.90;;;;;;5139126;27;20126;-60
2023/01/09 00:30:00;;;;;;;15.18;3.53;;;6.40;99.90;;;;;;5134288;27;20091;-60
2023/01/09 00:32:27;;;;;;;7.30;2.67;;;6.50;99.90;;;;;;5116827;27;20038;-60
2023/01/09 00:34:53;;;;;;;11.68;2.60;;;6.50;99.90;;;;;;5134784;27;20042;-62
2023/01/09 00:37:19;;;;;;;12.10;2.50;;;6.60;99.90;;;;;;5133578;27;20035;-60
2023/01/09 00:39:44;;;;;;;7.40;2.47;;;6.70;99.90;;;;;;5134615;27;20100;-59
2023/01/09 00:42:16;;;;;;;8.80;2.83;;;6.80;99.90;;;;;;5133424;27;20153;-61
2023/01/09 00:44:49;;;;;;;7.72;2.38;;;6.80;99.90;;;;;;5138731;27;20489;-59
2023/01/09 00:47:20;;;;;;;3.67;1.17;;;6.90;99.90;;;;;;5138470;27;20806;-60
2023/01/09 00:49:46;;;;;;;3.95;1.02;;;6.80;99.90;;;;;;5140467;27;20053;-60
2023/01/09 00:52:13;;;;;;;5.10;1.05;;;6.70;99.90;;;;;;5109907;27;20132;-60
2023/01/09 00:54:41;;;;;;;2.83;0.90;;;6.60;99.90;;;;;;5128688;27;20058;-61
2023/01/09 00:57:10;;;;;;;3.17;0.85;;;6.50;99.90;;;;;;5128504;27;20046;-61
2023/01/09 00:59:35;;;;;;;1.35;0.73;;;6.40;99.90;;;;;;5127521;27;20078;-62
2023/01/09 01:02:01;;;;;;;3.33;0.70;;;6.30;99.90;;;;;;5129332;27;20093;-62
2023/01/09 01:09:55;;;;;;;2.63;0.80;;;6.10;99.90;;;;;;5148280;27;20039;-61
2023/01/09 01:12:20;;;;;;;2.97;0.75;;;6.10;99.90;;;;;;5148911;27;20035;-61
2023/01/09 01:14:46;;;;;;;3.17;0.77;;;6.00;99.90;;;;;;5147516;27;20073;-61
2023/01/09 01:17:11;;;;;;;2.83;0.70;;;6.00;99.90;;;;;;5148073;27;20023;-61
2023/01/09 01:19:37;;;;;;;2.33;0.80;;;6.00;99.90;;;;;;5148091;27;20035;-61
2023/01/09 01:22:03;;;;;;;5.00;0.88;;;6.00;99.90;;;;;;5147150;27;20115;-61
2023/01/09 01:24:29;;;;;;;3.33;1.17;;;5.90;99.90;;;;;;5149010;27;20053;-61
2023/01/09 01:26:55;;;;;;;5.10;1.40;;;5.90;99.90;;;;;;5130515;27;20027;-61
2023/01/09 01:29:20;;;;;;;5.50;1.92;;;5.90;99.90;;;;;;5145990;27;20216;-61
2023/01/09 01:31:46;;;;;;;5.22;2.30;;;5.90;99.90;;;;;;5128733;27;20038;-61
2023/01/09 01:34:11;;;;;;;8.57;2.92;;;6.00;99.90;;;;;;5148217;27;20042;-61
2023/01/09 01:36:37;;;;;;;7.43;3.13;;;6.00;99.90;;;;;;5147347;27;20046;-61
2023/01/09 01:39:02;;;;;;;7.65;3.08;;;6.00;99.90;;;;;;5145814;27;20034;-61
2023/01/09 01:41:28;;;;;;;11.45;3.83;;;6.10;99.90;;;;;;5129933;27;20041;-61
2023/01/09 01:44:00;;;;;;;10.38;4.35;;;6.10;99.90;;;;;;5128222;27;20072;-61
2023/01/09 01:46:27;;;;;;;8.93;3.63;;;6.10;99.90;;;;;;5145927;27;20039;-60
2023/01/09 01:49:02;;;;;;;8.15;3.20;;;6.10;99.90;;;;;;5128526;27;20122;-61
2023/01/09 01:51:32;;;;;;;9.68;3.00;;;6.10;99.90;;;;;;5146767;27;20047;-61
2023/01/09 01:54:02;;;;;;;6.07;2.53;;;6.20;99.90;;;;;;5145875;27;20066;-61
2023/01/09 01:56:32;;;;;;;15.20;2.90;;;6.20;99.90;;;;;;5128543;27;20053;-61
2023/01/09 01:59:17;;;;;;;6.40;2.10;;;6.20;99.90;;;;;;5145672;27;20051;-61
2023/01/09 02:01:46;;;;;;;6.40;1.73;;;6.30;99.90;;;;;;5146627;27;20578;-61
2023/01/09 02:04:12;;;;;;;5.72;2.08;;;6.30;99.90;;;;;;5128749;27;20045;-60
2023/01/09 02:06:39;;;;;;;5.80;2.08;;;6.30;99.90;;;;;;5147149;27;20039;-61
2023/01/09 02:09:05;;;;;;;9.32;1.92;;;6.40;99.90;;;;;;5146524;27;20131;-61
2023/01/09 02:11:31;;;;;;;6.45;1.73;;;6.40;99.90;;;;;;5127853;27;20332;-60
2023/01/09 02:13:58;;;;;;;5.15;1.70;;;6.40;99.90;;;;;;5147606;27;20099;-61
2023/01/09 02:16:26;;;;;;;6.00;1.80;;;6.40;99.90;;;;;;5126553;27;20122;-61
2023/01/09 02:19:23;;;;;;;5.97;1.92;;;6.50;99.90;;;;;;5146727;27;20041;-61
2023/01/09 02:22:03;;;;;;;4.88;1.95;;;6.50;99.90;;;;;;5146703;27;20036;-60
2023/01/09 02:24:59;;;;;;;6.72;1.90;;;6.50;99.90;;;;;;5146187;27;20043;-61
2023/01/09 02:27:49;;;;;;;7.50;2.03;;;6.40;99.90;;;;;;5146851;27;20122;-61
2023/01/09 02:30:35;;;;;;;5.40;2.00;;;6.40;99.90;;;;;;5126473;27;20417;-61
2023/01/09 02:33:22;;;;;;;9.18;2.05;;;6.40;99.90;;;;;;5146426;27;20038;-60
2023/01/09 02:36:10;;;;;;;11.45;2.00;;;6.40;99.90;;;;;;5145915;27;20046;-60
2023/01/09 02:38:54;;;;;;;6.57;1.90;;;6.30;99.90;;;;;;5145987;27;20039;-61
2023/01/09 02:41:39;;;;;;;6.30;1.95;;;6.30;99.90;;;;;;5128366;27;20039;-61
2023/01/09 02:44:22;;;;;;;10.25;2.03;;;6.20;99.90;;;;;;5146088;27;20050;-61
2023/01/09 02:47:07;;;;;;;7.65;2.40;;;6.20;99.90;;;;;;5134590;27;20049;-61
2023/01/09 02:49:38;;;;;;;9.15;2.60;;;6.20;99.90;;;;;;5146296;27;20398;-60
2023/01/09 02:52:27;;;;;;;10.25;2.35;;;6.10;99.90;;;;;;5143896;27;20051;-60
2023/01/09 02:55:02;;;;;;;10.18;2.50;;;6.10;99.90;;;;;;5146632;27;20043;-61
2023/01/09 02:57:50;;;;;;;8.73;2.80;;;6.00;99.90;;;;;;5127172;27;20046;-61
2023/01/09 03:00:33;;;;;;;6.95;2.33;;;6.00;99.90;;;;;;5145014;27;20045;-61
2023/01/09 03:03:05;;;;;;;11.10;2.50;;;5.90;99.90;;;;;;5127036;27;20068;-62
2023/01/09 03:05:42;;;;;;;7.80;2.50;;;5.90;99.90;;;;;;5146036;27;20530;-61
2023/01/09 03:08:16;;;;;;;10.40;2.72;;;5.80;99.90;;;;;;5144239;27;20486;-62
2023/01/09 03:10:57;;;;;;;;;;;5.80;99.90;;;;;;5146792;27;20031;-60
2023/01/09 03:13:27;;;;;;;6.78;2.80;;;5.80;99.90;;;;;;5145908;27;20010;-61
2023/01/09 03:15:55;;;;;;;14.55;3.20;;;5.70;99.90;;;;;;5144223;27;20120;-60
2023/01/09 03:18:24;;;;;;;12.60;3.45;;;5.70;99.90;;;;;;5146504;27;20073;-61
2023/01/09 03:20:50;;;;;;;11.02;3.70;;;5.70;99.90;;;;;;5121541;27;20664;-61
2023/01/09 03:23:16;;;;;;;12.32;3.85;;;5.60;99.90;;;;;;5124123;27;20035;-61
2023/01/09 03:25:41;;;;;;;14.65;3.58;;;5.60;99.90;;;;;;5112891;27;20404;-61
2023/01/09 03:28:15;;;;;;;11.32;3.30;;;5.60;99.90;;;;;;5146479;27;20043;-61
2023/01/09 03:30:41;;;;;;;10.85;3.78;;;5.60;99.90;;;;;;5124281;27;20041;-61
2023/01/09 03:33:06;;;;;;;11.55;3.70;;;5.60;99.90;;;;;;5144888;27;20042;-61
2023/01/09 03:35:32;;;;;;;13.85;3.60;;;5.50;99.90;;;;;;5108718;27;20038;-62
2023/01/09 03:37:58;;;;;;;13.25;3.33;;;5.50;99.90;;;;;;5144670;27;20314;-61
2023/01/09 03:40:23;;;;;;;9.57;3.35;;;5.50;99.90;;;;;;5145699;27;20038;-61
2023/01/09 03:42:49;;;;;;;9.25;3.50;;;5.40;99.90;;;;;;5143026;27;20045;-60
2023/01/09 03:45:15;;;;;;;11.52;4.20;;;5.40;99.90;;;;;;5143076;27;20053;-61
2023/01/09 03:47:41;;;;;;;12.40;4.10;;;5.30;99.90;;;;;;5143851;27;20042;-62
2023/01/09 03:50:07;;;;;;;13.40;4.20;;;5.30;99.90;;;;;;5144485;27;20087;-60
2023/01/09 03:52:34;;;;;;;17.75;4.55;;;5.30;99.90;;;;;;5124618;27;20090;-61
2023/01/09 03:55:00;;;;;;;11.38;4.47;;;5.30;99.90;;;;;;5126265;27;20042;-61
2023/01/09 03:57:25;;;;;;;12.18;4.50;;;5.30;99.90;;;;;;5144517;27;20529;-61
2023/01/09 03:59:51;;;;;;;13.73;4.50;;;5.20;99.90;;;;;;5107761;27;20053;-61
2023/01/09 04:02:17;;;;;;;15.10;5.03;;;5.20;99.90;;;;;;5144878;27;20043;-61
2023/01/09 04:04:42;;;;;;;17.60;4.57;;;5.20;99.90;;;;;;5145615;27;20434;-61
2023/01/09 04:07:08;;;;;;;12.25;4.70;;;5.20;99.90;;;;;;5107333;27;20042;-61
2023/01/09 04:09:33;;;;;;;13.15;4.45;;;5.10;99.90;;;;;;5145109;27;20383;-60
2023/01/09 04:11:59;;;;;;;11.38;4.43;;;5.10;99.90;;;;;;5145349;27;20043;-61
2023/01/09 04:14:24;;;;;;;11.40;4.50;;;5.10;99.90;;;;;;5144763;27;20039;-60
2023/01/09 04:16:50;;;;;;;13.75;5.47;;;5.00;99.90;;;;;;5125520;27;20042;-61
2023/01/09 04:19:15;;;;;;;15.80;5.10;;;5.10;99.90;;;;;;5145140;27;20046;-62
2023/01/09 04:21:41;;;;;;;14.95;5.05;;;5.00;99.90;;;;;;5145007;27;20034;-61
2023/01/09 04:24:07;;;;;;;16.90;5.10;;;5.00;99.90;;;;;;5145587;27;20038;-62
2023/01/09 04:26:32;;;;;;;16.05;5.05;;;5.00;99.90;;;;;;5126548;27;20049;-61
2023/01/09 04:28:59;;;;;;;15.65;5.88;;;5.00;99.90;;;;;;5144787;27;20031;-61
2023/01/09 04:31:25;;;;;;;14.88;5.70;;;5.00;99.90;;;;;;5124639;27;20209;-62
2023/01/09 04:33:50;;;;;;;14.95;5.68;;;5.00;99.90;;;;;;5126464;27;20137;-61
2023/01/09 04:36:16;;;;;;;13.57;5.28;;;5.00;99.90;;;;;;5144055;27;20451;-61
2023/01/09 04:38:41;;;;;;;15.70;5.28;;;5.00;99.90;;;;;;5125767;27;20046;-61
2023/01/09 04:41:07;;;;;;;15.85;5.78;;;5.00;99.90;;;;;;5144229;27;20126;-62
2023/01/09 04:43:32;;;;;;;21.00;6.03;;;5.00;99.90;;;;;;5145091;27;20051;-61
2023/01/09 04:45:58;;;;;;;19.10;6.20;;;4.90;99.90;;;;;;5141831;27;20035;-61
2023/01/09 04:48:23;;;;;;;14.77;6.88;;;4.90;99.90;;;;;;5126329;27;20438;-61
2023/01/09 04:50:49;;;;;;;22.98;6.50;;;4.90;99.90;;;;;;5143894;27;20065;-62
2023/01/09 04:53:14;;;;;;;12.65;5.80;;;4.90;99.90;;;;;;5124275;27;20047;-61
2023/01/09 04:55:41;;;;;;;14.63;6.85;;;4.90;99.90;;;;;;5145155;27;20031;-61
2023/01/09 04:58:07;;;;;;;15.88;6.32;;;4.90;99.90;;;;;;5145556;27;20050;-61
2023/01/09 05:00:33;;;;;;;18.48;6.35;;;4.80;99.90;;;;;;5142460;27;20035;-61
2023/01/09 05:02:58;;;;;;;18.27;6.47;;;4.80;99.90;;;;;;5144190;27;20504;-61
2023/01/09 05:05:24;;;;;;;16.48;6.18;;;4.80;99.90;;;;;;5125642;27;20164;-61
2023/01/09 05:07:49;;;;;;;15.45;6.53;;;4.70;99.90;;;;;;5143618;27;20609;-61
2023/01/09 05:10:15;;;;;;;18.27;7.00;;;4.70;99.90;;;;;;5144129;27;20046;-61
2023/01/09 05:12:41;;;;;;;20.10;7.15;;;4.70;99.90;;;;;;5126539;27;20219;-61
2023/01/09 05:15:07;;;;;;;21.40;7.90;;;4.60;99.90;;;;;;5142629;27;20045;-61
2023/01/09 05:17:33;;;;;;;18.15;7.75;;;4.70;99.90;;;;;;5143699;27;20479;-61
2023/01/09 05:20:01;;;;;;;19.58;8.35;;;4.70;99.90;;;;;;5125336;27;20043;-62
2023/01/09 05:22:27;;;;;;;22.63;8.98;;;4.70;99.90;;;;;;5108029;27;20153;-61
2023/01/09 05:24:53;;;;;;;25.55;10.10;;;4.80;99.90;;;;;;5144375;27;20122;-61
2023/01/09 05:27:18;;;;;;;23.90;10.55;;;4.80;99.90;;;;;;5144067;27;20649;-61
2023/01/09 05:29:44;;;;;;;26.67;11.60;;;4.90;99.90;;;;;;5141157;27;20035;-60
2023/01/09 05:32:09;;;;;;;28.58;11.80;;;4.90;99.90;;;;;;5127700;27;20038;-61
2023/01/09 05:34:35;;;;;;;26.65;11.90;;;5.00;99.90;;;;;;5148167;27;20046;-61
2023/01/09 05:37:00;;;;;;;27.60;13.13;;;5.00;99.90;;;;;;5146077;27;20069;-61
2023/01/09 05:39:26;;;;;;;30.90;13.30;;;5.10;99.90;;;;;;5147707;27;20042;-61
2023/01/09 05:41:51;;;;;;;28.40;14.55;;;5.10;99.90;;;;;;5147482;27;20095;-60
2023/01/09 05:44:17;;;;;;;30.98;14.85;;;5.10;99.90;;;;;;5147358;27;20075;-62
2023/01/09 05:46:42;;;;;;;32.95;14.55;;;5.20;99.90;;;;;;5146313;27;20027;-62
2023/01/09 05:49:08;;;;;;;32.30;15.88;;;5.20;99.90;;;;;;5147384;27;20073;-61
2023/01/09 05:51:34;;;;;;;34.30;16.38;;;5.20;99.90;;;;;;5147275;27;20051;-61
2023/01/09 05:53:59;;;;;;;29.60;15.65;;;5.20;99.90;;;;;;5146763;27;20038;-59
2023/01/09 05:56:25;;;;;;;34.58;16.92;;;5.20;99.90;;;;;;5129552;27;20042;-62
2023/01/09 05:58:50;;;;;;;33.70;17.70;;;5.20;99.90;;;;;;5146454;27;20045;-60
2023/01/09 06:01:16;;;;;;;39.03;17.73;;;5.20;99.90;;;;;;5146361;27;20039;-61
2023/01/09 06:03:41;;;;;;;36.60;18.00;;;5.20;99.90;;;;;;5128638;27;20103;-61
2023/01/09 06:06:07;;;;;;;36.17;18.92;;;5.20;99.90;;;;;;5147641;27;20039;-60
2023/01/09 06:08:33;;;;;;;39.97;18.58;;;5.30;99.90;;;;;;5110809;27;20547;-59
2023/01/09 06:10:58;;;;;;;35.20;18.85;;;5.30;99.90;;;;;;5146762;27;20031;-61
2023/01/09 06:13:24;;;;;;;30.13;17.13;;;5.30;99.90;;;;;;5147770;27;20038;-62
2023/01/09 06:15:49;;;;;;;37.72;19.00;;;5.30;99.90;;;;;;5146611;27;20038;-60
2023/01/09 06:18:15;;;;;;;30.35;16.20;;;5.30;99.90;;;;;;5128123;27;20098;-61
2023/01/09 06:20:42;;;;;;;33.75;18.23;;;5.40;99.90;;;;;;5118371;27;20472;-61
2023/01/09 06:23:08;;;;;;;33.17;18.40;;;5.40;99.90;;;;;;5116467;27;20114;-61
2023/01/09 06:25:34;;;;;;;34.78;18.38;;;5.40;99.90;;;;;;5116845;27;20045;-61
2023/01/09 06:27:59;;;;;;;32.15;17.27;;;5.40;99.90;;;;;;5126640;27;20123;-60
2023/01/09 06:30:25;;;;;;;29.15;17.45;;;5.40;99.90;;;;;;5140317;27;20541;-60
2023/01/09 06:32:50;;;;;;;34.25;18.23;;;5.40;99.90;;;;;;5127744;27;20039;-61
2023/01/09 06:35:21;;;;;;;34.28;18.70;;;5.40;99.90;;;;;;5138626;27;20126;-61
2023/01/09 06:37:47;;;;;;;36.25;18.27;;;5.40;99.90;;;;;;5125085;27;20043;-61
2023/01/09 06:40:13;;;;;;;38.67;18.45;;;5.40;99.90;;;;;;5130258;27;20045;-60
2023/01/09 06:42:43;;;;;;;30.75;17.48;;;5.40;99.90;;;;;;5146862;27;20034;-60
2023/01/09 06:45:09;;;;;;;33.42;17.75;;;5.40;99.90;;;;;;5126025;27;20126;-60
2023/01/09 06:47:34;;;;;;;32.92;18.08;;;5.40;99.90;;;;;;5145557;27;20047;-61
2023/01/09 06:50:00;;;;;;;32.78;18.58;;;5.40;99.90;;;;;;5127070;27;20034;-61
2023/01/09 06:52:25;;;;;;;32.28;15.75;;;5.40;99.90;;;;;;5139304;27;20047;-60
2023/01/09 06:54:51;;;;;;;31.33;17.52;;;5.40;99.90;;;;;;5117175;27;20045;-61
2023/01/09 06:57:17;;;;;;;31.83;16.85;;;5.40;99.90;;;;;;5134306;27;20081;-61
2023/01/09 06:59:42;;;;;;;31.52;15.93;;;5.40;99.90;;;;;;5114100;27;20050;-61
2023/01/09 07:02:16;;;;;;;32.22;16.25;;;5.40;99.90;;;;;;5144601;27;20044;-61
2023/01/09 07:04:42;;;;;;;28.67;16.10;;;5.40;99.90;;;;;;5146393;27;20035;-61
2023/01/09 07:07:07;;;;;;;32.80;16.10;;;5.40;99.90;;;;;;5144985;27;20049;-59
2023/01/09 07:09:33;;;;;;;26.98;14.95;;;5.40;99.90;;;;;;5146352;27;20057;-61
2023/01/09 07:11:58;;;;;;;27.10;15.27;;;5.40;99.90;;;;;;5145503;27;20457;-60
2023/01/09 07:14:24;;;;;;;29.02;14.23;;;5.40;99.90;;;;;;5145431;27;20050;-59
2023/01/09 07:16:49;;;;;;;26.50;13.88;;;5.40;99.90;;;;;;5126574;27;20042;-60
2023/01/09 07:19:15;;;;;;;26.20;14.27;;;5.40;99.90;;;;;;5145972;27;20046;-60
2023/01/09 07:21:40;;;;;;;25.45;13.05;;;5.30;99.90;;;;;;5146236;27;20633;-60
2023/01/09 07:24:06;;;;;;;22.45;12.88;;;5.30;99.90;;;;;;5144355;27;20458;-60
2023/01/09 07:26:31;;;;;;;27.52;13.43;;;5.30;99.90;;;;;;5141191;27;20031;-60
2023/01/09 07:28:57;;;;;;;22.40;12.32;;;5.30;99.90;;;;;;5136367;27;20296;-60
2023/01/09 07:31:22;;;;;;;21.08;12.52;;;5.20;99.90;;;;;;5137673;27;20130;-60
2023/01/09 07:33:48;;;;;;;26.73;12.25;;;5.20;99.90;;;;;;5145880;27;20039;-61
2023/01/09 07:36:14;;;;;;;27.55;11.20;;;5.20;99.90;;;;;;5144418;27;20035;-61
2023/01/09 07:38:39;;;;;;;24.13;12.02;;;5.10;99.90;;;;;;5144629;27;20034;-61
2023/01/09 07:41:05;;;;;;;26.23;11.27;;;5.10;99.90;;;;;;5144942;27;20039;-60
2023/01/09 07:43:30;;;;;;;19.23;10.80;;;5.10;99.90;;;;;;5146021;27;20458;-60
2023/01/09 07:45:56;;;;;;;20.65;10.45;;;5.00;99.90;;;;;;5143881;27;20031;-60
2023/01/09 07:48:21;;;;;;;19.25;10.88;;;5.00;99.90;;;;;;5126552;27;20031;-62
2023/01/09 07:50:47;;;;;;;22.70;10.93;;;5.00;99.90;;;;;;5145546;27;20038;-61
2023/01/09 07:53:12;;;;;;;22.58;10.75;;;5.00;99.90;;;;;;5143325;27;20090;-62
2023/01/09 07:55:38;;;;;;;18.92;9.90;;;5.00;99.90;;;;;;5127132;27;20473;-61
2023/01/09 07:58:03;;;;;;;20.08;9.93;;;5.00;99.90;;;;;;5127442;27;20049;-61
2023/01/09 08:00:29;;;;;;;23.45;8.63;;;5.00;99.90;;;;;;5143077;27;20039;-60
2023/01/09 08:02:54;;;;;;;18.88;9.57;;;4.90;99.90;;;;;;5144795;27;20215;-61
2023/01/09 08:05:20;;;;;;;22.38;9.65;;;4.90;99.90;;;;;;5144941;27;20039;-61
2023/01/09 08:07:46;;;;;;;17.52;9.25;;;4.90;99.90;;;;;;5143558;27;20038;-61
2023/01/09 08:10:12;;;;;;;19.33;9.80;;;4.80;99.90;;;;;;5145385;27;20031;-62
2023/01/09 08:12:41;;;;;;;19.55;9.48;;;4.80;99.90;;;;;;5126874;27;20042;-62
2023/01/09 08:15:07;;;;;;;22.60;9.75;;;4.90;99.90;;;;;;5139929;27;20547;-62
2023/01/09 08:17:33;;;;;;;21.88;9.45;;;4.90;99.90;;;;;;5135302;27;20047;-62
2023/01/09 08:19:58;;;;;;;19.17;8.20;;;4.90;99.90;;;;;;5133278;27;20346;-61
2023/01/09 08:22:24;;;;;;;18.20;9.18;;;5.00;99.90;;;;;;5135624;27;20035;-60
2023/01/09 08:24:49;;;;;;;19.60;8.68;;;5.00;99.90;;;;;;5140666;27;20023;-60
2023/01/09 08:27:15;;;;;;;19.50;9.15;;;5.00;99.90;;;;;;5134094;27;20066;-60
2023/01/09 08:29:41;;;;;;;14.07;7.85;;;5.10;99.90;;;;;;5143418;27;20051;-60
2023/01/09 08:32:06;;;;;;;17.13;7.20;;;5.10;99.90;;;;;;5126014;27;20043;-60
2023/01/09 08:34:32;;;;;;;18.58;7.78;;;5.20;99.90;;;;;;5145312;27;20042;-59
2023/01/09 08:36:58;;;;;;;18.15;7.55;;;5.20;99.90;;;;;;5143296;27;20039;-60
2023/01/09 08:39:23;;;;;;;20.20;8.40;;;5.20;99.90;;;;;;5143099;27;20038;-60
2023/01/09 08:47:20;;;;;;;17.70;6.35;;;5.30;99.90;;;;;;5144063;27;20055;-60
2023/01/09 08:49:45;;;;;;;15.70;7.03;;;5.30;99.90;;;;;;5128677;27;20685;-61
2023/01/09 08:52:12;;;;;;;12.90;6.07;;;5.30;99.90;;;;;;5124612;27;20059;-61
2023/01/09 08:54:38;;;;;;;18.70;6.00;;;5.40;99.90;;;;;;5126186;27;20656;-58
2023/01/09 08:57:05;;;;;;;16.48;6.72;;;5.40;99.90;;;;;;5145084;27;20046;-60
2023/01/09 08:59:30;;;;;;;15.45;6.13;;;5.50;99.90;;;;;;5123754;27;20041;-60
2023/01/09 09:01:57;;;;;;;19.52;6.13;;;5.50;99.90;;;;;;5118112;27;20043;-61
2023/01/09 09:04:23;;;;;;;16.20;5.75;;;5.60;99.90;;;;;;5144696;27;20263;-60
2023/01/09 09:06:48;;;;;;;14.73;5.28;;;5.60;99.90;;;;;;5147829;27;20041;-59
2023/01/09 09:09:14;;;;;;;14.35;5.75;;;5.70;99.90;;;;;;5147850;27;20049;-60
2023/01/09 09:11:39;;;;;;;18.92;5.55;;;5.70;99.90;;;;;;5130762;27;20427;-60
2023/01/09 09:16:49;;;;;;;12.05;5.43;;;5.80;99.90;;;;;;5147234;27;20047;-60
2023/01/09 09:19:15;;;;;;;12.02;5.50;;;5.80;99.90;;;;;;5148126;27;20047;-59
2023/01/09 09:21:40;;;;;;;14.57;5.03;;;5.80;99.90;;;;;;5129215;27;20038;-59
2023/01/09 09:24:06;;;;;;;12.20;5.13;;;5.80;99.90;;;;;;5121593;27;20043;-61
2023/01/09 09:26:31;;;;;;;17.15;5.15;;;5.90;99.90;;;;;;5120835;27;20088;-59
2023/01/09 09:28:57;;;;;;;11.68;4.95;;;5.90;99.90;;;;;;5133198;27;20034;-60
2023/01/09 09:31:23;;;;;;;15.63;5.25;;;5.90;99.90;;;;;;5145696;27;20486;-61
2023/01/09 09:33:49;;;;;;;13.23;5.68;;;5.90;99.90;;;;;;5148338;27;20046;-58
2023/01/09 09:36:14;;;;;;;12.68;4.70;;;6.00;99.90;;;;;;5147349;27;20066;-60
2023/01/09 09:38:40;;;;;;;13.05;4.80;;;6.00;99.90;;;;;;5147306;27;20051;-60
2023/01/09 09:44:52;;;;;;;14.38;5.50;;;6.10;99.90;;;;;;5133603;27;20083;-60
2023/01/09 09:47:39;;;;;;;12.60;4.88;;;6.10;99.90;;;;;;5102545;27;20046;-60
2023/01/09 09:50:39;;;;;;;18.50;4.85;;;6.20;99.90;;;;;;5129313;27;20163;-59
2023/01/09 09:53:36;;;;;;;11.10;4.13;;;6.30;99.90;;;;;;5134829;27;20095;-59
2023/01/09 09:56:03;;;;;;;13.43;4.93;;;6.30;99.90;;;;;;5122567;27;20121;-61
2023/01/09 09:58:43;;;;;;;12.02;4.57;;;6.40;99.90;;;;;;5128232;27;20497;-59
2023/01/09 10:01:14;;;;;;;14.82;4.50;;;6.40;99.90;;;;;;5109130;27;20127;-60
2023/01/09 10:03:57;;;;;;;15.32;4.50;;;6.40;99.90;;;;;;5129380;27;20051;-60
2023/01/09 10:06:30;;;;;;;14.00;4.80;;;6.50;99.90;;;;;;5128664;27;20110;-60
2023/01/09 10:09:31;;;;;;;10.70;4.07;;;6.50;99.90;;;;;;5125869;27;20035;-59
2023/01/09 10:12:06;;;;;;;12.68;4.53;;;6.50;99.90;;;;;;5126729;27;20047;-60
2023/01/09 10:14:31;;;;;;;14.48;4.38;;;6.50;99.90;;;;;;5138750;27;20414;-60
2023/01/09 10:17:44;;;;;;;10.90;4.40;;;6.50;99.90;;;;;;5145415;27;20042;-59
2023/01/09 10:20:48;;;;;;;12.95;4.25;;;6.50;99.90;;;;;;5146903;27;20043;-61
2023/01/09 10:23:23;;;;;;;13.50;4.32;;;6.50;99.90;;;;;;5139444;27;20073;-61
2023/01/09 10:25:55;;;;;;;14.27;4.05;;;6.60;99.90;;;;;;5147074;27;20095;-61
2023/01/09 10:28:30;;;;;;;12.32;4.55;;;6.60;99.90;;;;;;5143857;27;20088;-60
2023/01/09 10:31:06;;;;;;;12.35;3.78;;;6.60;99.90;;;;;;5143458;27;20458;-60
2023/01/09 10:33:53;;;;;;;13.65;4.07;;;6.70;99.90;;;;;;5126427;27;20039;-59
2023/01/09 10:36:32;;;;;;;12.23;3.92;;;6.70;99.90;;;;;;5106970;27;20071;-60
2023/01/09 10:39:03;;;;;;;14.57;3.85;;;6.70;99.90;;;;;;5125534;27;20042;-60
2023/01/09 10:41:57;;;;;;;12.95;3.47;;;6.70;99.90;;;;;;5130435;27;20038;-59
2023/01/09 10:44:26;;;;;;;19.93;4.07;;;6.70;99.90;;;;;;5145961;27;20070;-59
2023/01/09 10:46:54;;;;;;;12.43;4.10;;;6.70;99.90;;;;;;5144828;27;20149;-60
2023/01/09 10:49:22;;;;;;;12.68;4.00;;;6.70;99.90;;;;;;5146091;27;20031;-58
2023/01/09 10:52:11;;;;;;;11.60;3.60;;;6.70;99.90;;;;;;5146048;27;20273;-59
2023/01/09 10:54:52;;;;;;;12.65;3.63;;;6.70;99.90;;;;;;5145797;27;20042;-60
2023/01/09 10:57:29;;;;;;;9.80;3.75;;;6.70;99.90;;;;;;5147075;27;20155;-59
2023/01/09 10:59:55;;;;;;;13.02;3.80;;;6.70;99.90;;;;;;5144026;27;20070;-58
2023/01/09 11:02:31;;;;;;;10.98;4.20;;;6.70;99.90;;;;;;5143242;27;20035;-60
2023/01/09 11:04:57;;;;;;;12.25;3.97;;;6.70;99.90;;;;;;5125285;27;20290;-58
2023/01/09 11:07:27;;;;;;;16.33;4.50;;;6.70;99.90;;;;;;5125005;27;20093;-59
2023/01/09 11:10:11;;;;;;;14.70;4.70;;;6.70;99.90;;;;;;5124955;27;20027;-61
2023/01/09 11:12:38;;;;;;;14.88;4.20;;;6.70;99.90;;;;;;5124023;27;20042;-59
2023/01/09 11:15:15;;;;;;;12.05;4.55;;;6.70;99.90;;;;;;5144675;27;20034;-59
2023/01/09 11:17:42;;;;;;;14.48;4.70;;;6.70;99.90;;;;;;5145979;27;20394;-59
2023/01/09 11:20:18;;;;;;;12.43;5.10;;;6.80;99.90;;;;;;5145319;27;20549;-59
2023/01/09 11:22:50;;;;;;;12.32;5.10;;;6.80;99.90;;;;;;5144938;27;20047;-59
2023/01/09 11:25:18;;;;;;;12.45;4.57;;;6.80;99.90;;;;;;5126723;27;20042;-60
2023/01/09 11:28:02;;;;;;;13.15;5.07;;;6.80;99.90;;;;;;5121459;27;20055;-59
2023/01/09 11:30:29;;;;;;;14.25;5.25;;;6.90;99.90;;;;;;5132944;27;20034;-61
2023/01/09 11:32:57;;;;;;;11.18;4.38;;;6.90;99.90;;;;;;5143998;27;20406;-57
2023/01/09 11:35:34;;;;;;;8.82;4.45;;;6.90;99.90;;;;;;5146404;27;20397;-59
2023/01/09 11:38:06;;;;;;;11.45;5.45;;;7.00;99.90;;;;;;5146209;27;20042;-58
2023/01/09 11:40:48;;;;;;;14.07;5.05;;;7.00;99.90;;;;;;5139431;27;20033;-58
2023/01/09 11:43:21;;;;;;;11.88;5.10;;;7.00;99.90;;;;;;5131436;27;20477;-59
2023/01/09 11:45:56;;;;;;;15.13;5.97;;;7.00;99.90;;;;;;5137240;27;20038;-59
2023/01/09 11:48:28;;;;;;;;;;;7.00;99.90;;;;;;5144643;27;20038;-58
2023/01/09 11:50:56;;;;;;;15.43;5.60;;;6.90;99.90;;;;;;5143013;27;20430;-58
2023/01/09 11:53:23;;;;;;;13.80;5.90;;;6.90;99.90;;;;;;5105436;27;20047;-60
2023/01/09 11:55:59;;;;;;;14.13;6.28;;;6.90;99.90;;;;;;5133326;27;20126;-58
2023/01/09 11:58:32;;;;;;;17.52;6.65;;;6.90;99.90;;;;;;5135132;27;20039;-58
2023/01/09 12:01:36;;;;;;;11.43;5.97;;;6.90;99.90;;;;;;5116950;27;20047;-58
2023/01/09 12:04:22;;;;;;;11.30;6.28;;;6.90;99.90;;;;;;5133310;27;20050;-58
2023/01/09 12:06:56;;;;;;;15.60;6.55;;;7.00;99.90;;;;;;5135817;27;20043;-59
2023/01/09 12:09:45;;;;;;;14.98;6.60;;;7.10;99.90;;;;;;5115675;27;20091;-59
2023/01/09 12:12:29;;;;;;;14.77;6.63;;;7.20;99.90;;;;;;5134912;27;20035;-59
2023/01/09 12:15:01;;;;;;;;;;;7.30;99.90;;;;;;5131466;27;20038;-59
2023/01/09 12:17:57;;;;;;;13.38;5.95;;;7.30;99.90;;;;;;5103815;27;20693;-59
2023/01/09 12:20:50;;;;;;;15.70;6.90;;;7.30;99.90;;;;;;5120716;27;20074;-60
2023/01/09 12:23:34;;;;;;;13.85;6.30;;;7.30;99.90;;;;;;5114517;27;20046;-58
2023/01/09 12:26:43;;;;;;;12.87;5.97;;;7.20;99.90;;;;;;5114766;27;20122;-59
2023/01/09 12:29:29;;;;;;;12.13;5.78;;;7.20;99.90;;;;;;5056290;27;20074;-60
2023/01/09 12:32:21;;;;;;;15.75;6.60;;;7.30;99.90;;;;;;5114196;27;20140;-60
2023/01/09 12:34:58;;;;;;;16.05;6.00;;;7.30;99.90;;;;;;5116412;27;20039;-60
2023/01/09 12:37:42;;;;;;;19.42;6.75;;;7.20;99.90;;;;;;5107766;27;20675;-60
2023/01/09 12:40:26;;;;;;;12.75;6.30;;;7.10;99.90;;;;;;5126155;27;20429;-58
2023/01/09 12:43:19;;;;;;;16.85;7.55;;;7.10;99.90;;;;;;5112140;27;20089;-59
2023/01/09 12:46:10;;;;;;;18.48;7.45;;;7.10;99.90;;;;;;5116231;27;20051;-58
2023/01/09 12:49:08;;;;;;;14.18;6.18;;;7.10;99.90;;;;;;5122470;27;20117;-60
2023/01/09 12:51:46;;;;;;;15.32;6.45;;;7.10;99.90;;;;;;5124260;27;20493;-58
2023/01/09 12:54:27;;;;;;;9.85;5.82;;;7.10;99.90;;;;;;5108734;27;20046;-60
2023/01/09 12:59:54;;;;;;;17.42;7.30;;;7.20;99.90;;;;;;5151053;22;20347;-60
2023/01/09 13:02:34;;;;;;;15.35;6.30;;;7.20;99.90;;;;;;5080451;28;20044;-63
2023/01/09 13:05:20;;;;;;;11.20;6.57;;;7.20;99.90;;;;;;5088002;28;20540;-65
2023/01/09 13:08:24;;;;;;;11.50;6.88;;;7.30;99.90;;;;;;5088579;28;20058;-62
2023/01/09 13:11:14;;;;;;;14.95;7.28;;;7.30;99.90;;;;;;5066743;28;20224;-64
2023/01/09 13:13:49;;;;;;;16.02;6.90;;;7.30;99.90;;;;;;5087862;28;20043;-63
2023/01/09 13:16:19;;;;;;;14.02;6.65;;;7.30;99.90;;;;;;5093675;28;20090;-66
2023/01/09 13:18:56;;;;;;;12.95;7.10;;;7.30;99.90;;;;;;5077236;28;20546;-65
2023/01/09 13:21:23;;;;;;;15.93;7.05;;;7.30;99.90;;;;;;5091072;28;20063;-63
2023/01/09 13:24:06;;;;;;;15.52;6.97;;;7.30;99.90;;;;;;5094305;28;20036;-63
2023/01/09 13:26:39;;;;;;;14.95;7.15;;;7.30;99.90;;;;;;5091518;27;20043;-62